Pickstown, SD (57367)

00:13 CDT le 28 Mars 2015 (GMT -0500)
Bristow/Gross | | Change Station
CLOSE
Current Station
Stations météorologiques personnelles
Location: Spencer, NE
Altitude: 1762 ft
Stations météo à proximité

Alt. 1762 ft 42.92 °N, 98.59 °W | Updated 7 minutes ago

Couvert
Couvert
32.2 ° F
Paraît 28 ° F
N
4.7
Vent Variable Vent de SSE

Aujourd'hui
Haut(e) -- | Bas -- ° F
--% Risque de précip.
Hier
Haut(e) -- | Bas -- ° F
Precip. -- pouce
7:23 AM 7:55 PM
Premier quartier, 59% visible
Pression 29.99 pouce
Visibilité 10.0 Miles terrestres
Nuages Couvert 10000 ft
Refroidissement éolien 28 ° F
Point de rosée 28 ° F
Humidité 85%
Précipitations 0.00 pouce
Profondeur de la couche neigeuse Non disponible.
UV 0 sur 12
Pollen 4.10 sur 12
Qualité de l'air Non disponible.
Flu Activity Non disponible.
METAR KONL 280455Z AUTO 14004KT 10SM OVC100 03/M01 A2999 RMK AO2 T00251013

More Conditions Fewer Conditions

Pression 29.99 pouce
Visibilité 10.0 Miles terrestres
Nuages Couvert 10000 ft
Refroidissement éolien 28 ° F
Point de rosée 28 ° F
Humidité 85%
Précipitations 0.00 pouce
Profondeur de la couche neigeuse Non disponible.
UV 0 sur 12
Pollen 4.10 sur 12
Qualité de l'air Non disponible.
Flu Activity Non disponible.
METAR KONL 280455Z AUTO 14004KT 10SM OVC100 03/M01 A2999 RMK AO2 T00251013

More Conditions Fewer Conditions

10-Day Weather Forecast

Almanac

Astronomie

Mar. 28, 2015 Lever Coucher
Temps réel
Crépuscule civil
Crépuscule nautique
Crépuscule astronomique
Lune
Durée de lumière visible
Longueur du jour
Tomorrow will be .
, % of the Moon is Illuminated

Extrêmes aujourd'hui

State Highs State Lows

Community

WunderPhotos

Upload Photos

1,808,934 Photos téléchargées !

WunderBlogs® & News

Nearby

Qualité de l'air

  Qualité de l'air Indice de la qualité de l'air Polluant
Not available.

Épaisseur de neige

Station Depth Altitude

Activité sismique

Ville Distance Mag. Time & Date
Minimum magnitude displayed is 2.5.

Températures des eaux côtières

Lieu Température

Stations

Stations météo à proximité

Emplacement de la station Température Refroidissement éolien Point de rosée Humidité Vent Precip. Alt. Mise à jour Type